Time;durP1;ratioP1;P1;durP2;ratioP2;P2;SDS_P1;SDS_P2;PMS_P1;PMS_P2;Temp;Humidity;BMP_temperature;BMP_pressure;BME280_temperature;BME280_humidity;BME280_pressure;Samples;Min_cycle;Max_cycle;Signal;HPM_P1;HPM_P2
2022/01/18 00:02:02;;;;;;;9.00;3.67;;;;;;;2.67;61.46;102600.75;6156393;23;20017;-75
2022/01/18 00:04:28;;;;;;;4.25;3.88;;;;;;;2.60;61.32;102606.81;6184200;23;20001;-74
2022/01/18 00:06:54;;;;;;;7.18;4.03;;;;;;;2.66;61.55;102626.06;6157441;23;20065;-73
2022/01/18 00:09:23;;;;;;;7.03;4.22;;;;;;;2.52;61.95;102604.06;6184119;23;20080;-74
2022/01/18 00:11:57;;;;;;;3.45;2.53;;;;;;;2.51;61.38;102610.47;6179411;23;20008;-74
2022/01/18 00:14:55;;;;;;;5.53;3.20;;;;;;;2.60;61.53;102620.31;6182262;23;20004;-74
2022/01/18 00:17:40;;;;;;;6.22;3.97;;;;;;;2.58;61.98;102624.19;6173381;23;20015;-75
2022/01/18 00:20:15;;;;;;;12.18;3.50;;;;;;;2.48;61.25;102618.88;6177006;23;20048;-76
2022/01/18 00:22:41;;;;;;;5.22;3.65;;;;;;;2.43;61.80;102607.72;6134211;23;20357;-77
2022/01/18 00:25:12;;;;;;;9.77;4.30;;;;;;;2.38;61.96;102596.53;6187048;23;20033;-75
2022/01/18 00:27:38;;;;;;;10.57;3.78;;;;;;;2.31;62.15;102595.47;6158397;23;20013;-75
2022/01/18 00:35:57;;;;;;;9.18;3.80;;;;;;;2.41;61.71;102634.00;6164223;23;20463;-76
2022/01/18 00:41:20;;;;;;;9.80;4.45;;;;;;;2.20;61.92;102589.31;6150596;23;20321;-76
2022/01/18 00:43:53;;;;;;;3.38;2.85;;;;;;;2.36;61.57;102620.16;6156824;23;20008;-76
2022/01/18 00:46:30;;;;;;;18.58;5.18;;;;;;;2.26;61.98;102588.72;6133529;23;20056;-76
2022/01/18 00:49:03;;;;;;;10.10;3.83;;;;;;;2.24;62.27;102579.06;6171256;23;20127;-76
2022/01/18 00:51:48;;;;;;;;;;;;;;;;;;;;;
2022/01/18 00:54:31;;;;;;;;;;;;;;;;;;;;;
2022/01/18 00:57:15;;;;;;;7.97;3.35;;;;;;;2.20;61.85;102575.81;6177724;23;20472;-74
2022/01/18 00:59:41;;;;;;;2.22;2.03;;;;;;;2.24;62.08;102579.91;6125370;23;20010;-75
2022/01/18 01:02:11;;;;;;;3.03;1.85;;;;;;;2.20;61.64;102577.69;6127339;23;20005;-74
2022/01/18 01:04:46;;;;;;;2.13;1.98;;;;;;;2.18;62.02;102590.50;6125405;23;20109;-75
2022/01/18 01:07:43;;;;;;;5.78;2.25;;;;;;;2.15;61.72;102588.13;6128414;23;20460;-76
2022/01/18 01:10:08;;;;;;;7.47;3.58;;;;;;;2.07;62.31;102589.75;6120063;23;20005;-75
2022/01/18 01:12:34;;;;;;;6.40;3.63;;;;;;;1.98;62.08;102576.34;6104320;23;20033;-75
2022/01/18 01:15:28;;;;;;;;;;;;;;;;;;;;;
2022/01/18 01:18:16;;;;;;;10.25;4.72;;;;;;;2.10;62.81;102588.56;6129704;23;20526;-75
2022/01/18 01:32:24;;;;;;;6.10;4.22;;;;;;;1.91;62.88;102568.88;6152215;23;20118;-73
2022/01/18 01:34:57;;;;;;;10.55;4.22;;;;;;;1.84;62.54;102573.19;6151208;23;20005;-75
2022/01/18 01:46:01;;;;;;;2.83;2.55;;;;;;;1.87;63.44;102594.47;6091583;23;20018;-74
2022/01/18 01:48:29;;;;;;;3.92;3.28;;;;;;;1.75;62.80;102576.78;6068812;23;20062;-75
2022/01/18 01:51:04;;;;;;;2.97;2.65;;;;;;;1.71;63.04;102578.97;6121195;23;20115;-75
2022/01/18 01:53:33;;;;;;;2.88;2.67;;;;;;;1.77;64.04;102580.22;6154980;23;20001;-74
2022/01/18 01:56:03;;;;;;;3.30;2.97;;;;;;;1.74;63.59;102584.06;6125631;23;20009;-74
2022/01/18 01:58:30;;;;;;;2.35;2.25;;;;;;;1.60;63.36;102562.19;6152624;23;20022;-74
2022/01/18 02:00:58;;;;;;;3.22;2.92;;;;;;;1.70;62.98;102587.22;6125994;23;19998;-74
2022/01/18 02:03:25;;;;;;;1.80;1.70;;;;;;;1.62;63.51;102576.34;6152742;23;20002;-74
2022/01/18 02:05:51;;;;;;;2.28;2.17;;;;;;;1.67;63.43;102580.28;6149279;23;20428;-73
2022/01/18 02:08:17;;;;;;;1.50;1.48;;;;;;;1.61;63.16;102555.75;6151277;23;20076;-73
2022/01/18 02:10:44;;;;;;;1.08;0.98;;;;;;;1.50;63.45;102538.81;6126945;23;20094;-74
2022/01/18 02:13:12;;;;;;;0.85;0.85;;;;;;;1.72;64.23;102563.63;6153187;23;20088;-74
2022/01/18 02:16:08;;;;;;;0.65;0.65;;;;;;;1.75;63.86;102571.41;6127677;23;20018;-74
2022/01/18 02:24:09;;;;;;;1.60;1.50;;;;;;;1.67;63.15;102561.38;6156569;23;20060;-74
2022/01/18 02:26:35;;;;;;;1.33;1.23;;;;;;;1.68;63.92;102556.84;6127389;23;20384;-73
2022/01/18 02:29:04;;;;;;;0.93;0.93;;;;;;;1.70;64.06;102552.16;6154739;23;20001;-73
2022/01/18 02:31:30;;;;;;;0.75;0.75;;;;;;;1.74;63.33;102561.63;6127407;23;20002;-74
2022/01/18 02:34:04;;;;;;;1.33;0.70;;;;;;;1.68;63.77;102551.44;6152068;23;20001;-74
2022/01/18 02:36:31;;;;;;;1.30;1.20;;;;;;;1.70;63.77;102565.63;6154491;23;20001;-74
2022/01/18 02:38:56;;;;;;;0.82;0.82;;;;;;;1.71;64.30;102561.94;6127491;23;20021;-73
2022/01/18 02:41:30;;;;;;;0.47;0.47;;;;;;;1.74;63.22;102558.94;6153934;23;20005;-73
2022/01/18 02:44:10;;;;;;;0.95;0.60;;;;;;;1.71;63.70;102551.16;6126460;23;20091;-75
2022/01/18 02:46:38;;;;;;;0.55;0.55;;;;;;;1.73;63.35;102568.03;6127077;23;20077;-73
2022/01/18 02:49:05;;;;;;;0.47;0.47;;;;;;;1.72;63.67;102579.81;6153554;23;20027;-73
2022/01/18 02:51:31;;;;;;;0.47;0.47;;;;;;;1.64;63.78;102561.72;6127720;23;20017;-73
2022/01/18 02:54:01;;;;;;;1.02;0.95;;;;;;;1.66;63.55;102565.09;6154420;23;20056;-74
2022/01/18 02:56:30;;;;;;;0.55;0.55;;;;;;;1.62;64.13;102554.75;6127331;23;20012;-74
2022/01/18 02:59:06;;;;;;;0.60;0.60;;;;;;;1.56;64.19;102543.59;6154499;23;20387;-74
2022/01/18 03:04:16;;;;;;;0.60;0.60;;;;;;;1.64;63.82;102558.16;6154927;23;20099;-73
2022/01/18 03:06:41;;;;;;;1.08;1.05;;;;;;;1.61;63.44;102544.97;6154177;23;20330;-75
2022/01/18 03:09:10;;;;;;;0.80;0.80;;;;;;;1.65;63.61;102558.00;6127795;23;20005;-75
2022/01/18 03:11:35;;;;;;;1.00;1.00;;;;;;;1.63;64.26;102542.97;6155108;23;20008;-73
2022/01/18 03:14:03;;;;;;;1.95;0.80;;;;;;;1.59;63.77;102530.81;6124993;23;20009;-74
2022/01/18 03:16:29;;;;;;;1.13;1.02;;;;;;;1.60;64.06;102527.94;6154332;23;20028;-75
2022/01/18 03:18:54;;;;;;;0.90;0.65;;;;;;;1.64;63.84;102542.00;6127930;23;20009;-74
2022/01/18 03:21:20;;;;;;;0.73;0.73;;;;;;;1.55;63.83;102536.50;6152511;23;20337;-74
2022/01/18 03:23:51;;;;;;;0.70;0.70;;;;;;;1.53;64.18;102543.06;6128141;23;20368;-74
2022/01/18 03:26:30;;;;;;;0.65;0.65;;;;;;;1.45;64.17;102538.44;6105019;23;20016;-73
2022/01/18 03:28:56;;;;;;;0.98;0.73;;;;;;;1.50;64.04;102543.38;6151653;23;20016;-73
2022/01/18 03:31:21;;;;;;;0.70;0.70;;;;;;;1.39;64.11;102530.97;6152770;23;20002;-73
2022/01/18 03:33:46;;;;;;;0.40;0.40;;;;;;;1.29;64.17;102514.03;6128010;23;20014;-72
2022/01/18 03:36:12;;;;;;;1.45;1.35;;;;;;;1.29;64.22;102525.63;6127977;23;20010;-73
2022/01/18 03:38:45;;;;;;;0.82;0.82;;;;;;;1.31;63.68;102533.56;6152985;23;20479;-74
2022/01/18 03:41:10;;;;;;;0.50;0.50;;;;;;;1.27;64.12;102526.78;6126936;23;20029;-74
2022/01/18 03:43:38;;;;;;;0.45;0.45;;;;;;;1.27;64.29;102526.78;6126202;23;20020;-73
2022/01/18 03:46:10;;;;;;;0.57;0.50;;;;;;;1.28;64.57;102534.72;6104772;23;20033;-74
2022/01/18 03:48:38;;;;;;;0.55;0.55;;;;;;;1.31;63.84;102538.97;6153514;23;20028;-74
2022/01/18 03:51:08;;;;;;;0.90;0.90;;;;;;;1.12;64.10;102503.06;6127291;23;20006;-73
2022/01/18 03:53:34;;;;;;;0.85;0.73;;;;;;;1.10;63.54;102510.44;6103463;23;20472;-73
2022/01/18 03:56:00;;;;;;;2.38;0.40;;;;;;;1.19;63.78;102520.31;6128260;23;20013;-75
2022/01/18 03:58:25;;;;;;;0.50;0.50;;;;;;;1.15;64.24;102518.91;6153963;23;20091;-75
2022/01/18 04:00:53;;;;;;;0.50;0.50;;;;;;;0.98;64.18;102495.47;6131534;23;20337;-74
2022/01/18 04:03:21;;;;;;;0.95;0.95;;;;;;;0.92;64.47;102496.09;6156403;23;20095;-74
2022/01/18 04:05:47;;;;;;;0.60;0.60;;;;;;;0.91;64.20;102492.56;6131187;23;20089;-76
2022/01/18 04:08:12;;;;;;;0.50;0.50;;;;;;;0.99;64.25;102503.44;6132268;23;20024;-76
2022/01/18 04:10:41;;;;;;;0.47;0.47;;;;;;;0.87;64.41;102489.31;6157810;23;20005;-77
2022/01/18 04:13:06;;;;;;;1.00;0.70;;;;;;;0.77;63.69;102477.75;6154858;23;20013;-76
2022/01/18 04:15:34;;;;;;;1.48;0.50;;;;;;;0.82;64.41;102480.84;6156511;23;20447;-76
2022/01/18 04:29:00;;;;;;;0.80;0.70;;;;;;;0.65;64.16;102468.19;6194301;23;20004;-74
2022/01/18 04:31:34;;;;;;;0.40;0.35;;;;;;;0.57;65.05;102460.00;6132354;23;20005;-74
2022/01/18 04:34:04;;;;;;;0.50;0.50;;;;;;;0.51;64.16;102451.53;6157156;23;20015;-76
2022/01/18 04:36:30;;;;;;;0.57;0.55;;;;;;;0.38;63.69;102444.78;6132701;23;20314;-74
2022/01/18 04:38:56;;;;;;;0.50;0.40;;;;;;;0.44;64.66;102455.81;6182837;23;20080;-73
2022/01/18 04:41:30;;;;;;;0.80;0.80;;;;;;;0.33;64.64;102446.09;6183240;23;20009;-73
2022/01/18 04:49:12;;;;;;;1.20;1.10;;;;;;;0.32;64.22;102462.38;6183197;23;20059;-74
2022/01/18 04:51:40;;;;;;;0.88;0.88;;;;;;;0.25;64.68;102461.28;6181460;23;20075;-73
2022/01/18 04:54:08;;;;;;;0.85;0.85;;;;;;;0.25;64.60;102461.28;6157488;23;20005;-74
2022/01/18 04:58:59;;;;;;;0.63;0.63;;;;;;;0.22;64.79;102458.88;6162919;23;20065;-73
2022/01/18 05:01:25;;;;;;;0.57;0.57;;;;;;;0.19;64.64;102457.34;6154453;23;20013;-72
2022/01/18 05:03:50;;;;;;;0.60;0.60;;;;;;;0.15;64.71;102448.72;6154222;23;20421;-72
2022/01/18 05:06:17;;;;;;;1.25;0.70;;;;;;;0.16;65.32;102447.72;6101750;23;20074;-73
2022/01/18 05:08:43;;;;;;;0.65;0.65;;;;;;;0.12;64.81;102434.72;6160895;23;20011;-73
2022/01/18 05:11:14;;;;;;;1.10;1.00;;;;;;;0.13;64.82;102445.34;6170586;23;20227;-73
2022/01/18 05:13:59;;;;;;;3.28;3.05;;;;;;;0.04;64.88;102434.59;6145434;23;20005;-73
2022/01/18 05:22:56;;;;;;;6.45;5.85;;;;;;;-0.35;65.26;102438.25;6159882;23;20092;-72
2022/01/18 05:24:24;;;;;;;4.15;3.85;;;;;;;-0.41;65.21;102433.44;6131482;23;20033;-73
2022/01/18 05:26:52;;;;;;;4.25;3.95;;;;;;;-0.44;65.58;102425.66;6125529;23;20088;-72
2022/01/18 05:29:21;;;;;;;3.53;3.15;;;;;;;-0.48;65.62;102433.19;6153398;23;20005;-72
2022/01/18 05:31:49;;;;;;;5.13;3.65;;;;;;;-0.52;65.14;102431.75;6128733;23;20060;-73
2022/01/18 05:34:19;;;;;;;4.32;3.83;;;;;;;-0.56;65.54;102424.97;6131094;23;20382;-74
2022/01/18 05:36:49;;;;;;;11.25;5.85;;;;;;;-0.56;66.63;102446.47;6130455;23;20009;-74
2022/01/18 05:39:21;;;;;;;15.32;7.72;;;;;;;-0.69;67.51;102446.75;6130090;23;20013;-74
2022/01/18 05:41:47;;;;;;;12.77;6.85;;;;;;;-0.81;66.72;102447.91;6138390;23;20013;-74
2022/01/18 05:44:15;;;;;;;11.57;7.00;;;;;;;-0.83;67.41;102458.78;6113078;23;20029;-73
2022/01/18 05:46:43;;;;;;;8.43;6.35;;;;;;;-1.06;67.18;102439.41;6165458;23;20083;-75
2022/01/18 05:49:08;;;;;;;11.65;7.15;;;;;;;-0.93;67.69;102477.59;6163311;23;20282;-73
2022/01/18 05:51:36;;;;;;;6.25;5.65;;;;;;;-1.02;68.26;102462.31;6140432;23;20078;-72
2022/01/18 05:54:02;;;;;;;9.15;6.13;;;;;;;-0.97;68.26;102454.66;6105872;23;20037;-74
2022/01/18 05:56:28;;;;;;;15.45;5.93;;;;;;;-1.05;69.23;102446.47;6128532;23;20001;-72
2022/01/18 05:58:55;;;;;;;6.82;6.10;;;;;;;-0.86;69.33;102460.91;6151974;23;20014;-73
2022/01/18 06:01:27;;;;;;;6.85;3.80;;;;;;;-0.88;69.37;102447.59;6129327;23;20385;-73
2022/01/18 06:04:09;;;;;;;3.58;3.33;;;;;;;-0.67;69.38;102465.44;6154211;23;20009;-72
2022/01/18 06:06:54;;;;;;;2.90;2.70;;;;;;;-0.59;68.56;102469.09;6154136;23;20017;-74
2022/01/18 06:09:22;;;;;;;1.92;1.83;;;;;;;-0.51;68.63;102459.47;6154881;23;20013;-74
2022/01/18 06:11:48;;;;;;;1.30;1.30;;;;;;;-0.36;68.10;102463.44;6153531;23;20009;-74
2022/01/18 06:14:16;;;;;;;1.25;1.15;;;;;;;-0.29;68.29;102464.56;6156190;23;20096;-74
2022/01/18 06:16:44;;;;;;;0.75;0.75;;;;;;;-0.20;68.92;102468.22;6128082;23;20005;-74
2022/01/18 06:19:10;;;;;;;1.48;0.95;;;;;;;-0.30;67.74;102441.34;6155771;23;20017;-74
2022/01/18 06:21:48;;;;;;;;;;;;;;;;;;;;;
2022/01/18 06:24:13;;;;;;;3.30;0.80;;;;;;;-0.09;68.98;102456.44;6154545;23;20092;-73
2022/01/18 06:26:41;;;;;;;1.38;0.70;;;;;;;-0.05;68.46;102455.16;6127875;23;20029;-73
2022/01/18 06:29:07;;;;;;;1.90;1.13;;;;;;;0.14;68.17;102470.41;6128474;23;20010;-74
2022/01/18 06:31:32;;;;;;;2.08;1.60;;;;;;;0.19;68.36;102456.50;6102926;23;20029;-74
2022/01/18 06:33:58;;;;;;;0.73;0.73;;;;;;;0.35;68.34;102464.78;6153555;23;20005;-73
2022/01/18 06:36:24;;;;;;;1.92;1.10;;;;;;;0.61;67.64;102477.56;6154045;23;20204;-73
2022/01/18 06:38:49;;;;;;;1.15;0.93;;;;;;;0.67;67.57;102458.97;6128694;23;20017;-73
2022/01/18 06:41:15;;;;;;;1.35;1.30;;;;;;;0.83;67.56;102457.44;6125899;23;20226;-72
2022/01/18 06:43:43;;;;;;;0.88;0.88;;;;;;;1.01;67.97;102468.25;6104820;23;20028;-74
2022/01/18 06:46:09;;;;;;;0.77;0.77;;;;;;;1.20;68.22;102461.88;6128658;23;20456;-74
2022/01/18 06:48:44;;;;;;;2.60;1.00;;;;;;;1.34;68.52;102468.56;6104608;23;20036;-75
2022/01/18 06:51:10;;;;;;;0.80;0.80;;;;;;;1.37;68.21;102458.34;6128068;23;20322;-73
2022/01/18 06:53:43;;;;;;;1.00;0.90;;;;;;;1.56;68.35;102469.94;6126812;23;20066;-73
2022/01/18 06:56:09;;;;;;;1.15;0.88;;;;;;;1.65;67.92;102476.22;6155372;23;20106;-73
2022/01/18 06:58:34;;;;;;;1.58;1.15;;;;;;;1.74;68.18;102484.25;6131123;23;20052;-73
2022/01/18 07:01:00;;;;;;;1.60;0.85;;;;;;;1.82;67.48;102472.66;6157651;23;20009;-73
2022/01/18 07:03:30;;;;;;;1.00;0.98;;;;;;;1.95;67.92;102476.81;6182683;23;20005;-74
2022/01/18 07:05:58;;;;;;;1.65;0.65;;;;;;;1.90;66.97;102463.78;6184417;23;20728;-74
2022/01/18 07:08:24;;;;;;;1.30;1.10;;;;;;;2.01;67.27;102473.47;6156680;23;20064;-74
2022/01/18 07:10:52;;;;;;;0.63;0.63;;;;;;;2.15;67.07;102472.88;6153762;23;20005;-73
2022/01/18 07:13:17;;;;;;;0.70;0.70;;;;;;;2.22;67.72;102473.94;6156375;23;20085;-76
2022/01/18 07:15:45;;;;;;;3.85;1.65;;;;;;;2.26;67.52;102469.91;6133912;23;20009;-76
2022/01/18 07:18:11;;;;;;;1.38;1.10;;;;;;;2.36;67.57;102471.63;6160022;23;20341;-74
2022/01/18 07:20:38;;;;;;;1.10;1.10;;;;;;;2.42;67.54;102465.59;6133424;23;20013;-74
2022/01/18 07:23:07;;;;;;;0.90;0.85;;;;;;;2.49;67.12;102473.91;6160315;23;20027;-75
2022/01/18 07:25:46;;;;;;;;;;;;;;;;;;;;;
2022/01/18 07:28:14;;;;;;;1.25;1.10;;;;;;;2.58;66.80;102481.84;6181741;23;20084;-74
2022/01/18 07:30:41;;;;;;;0.95;0.93;;;;;;;2.62;66.63;102483.22;6154008;23;20083;-74
2022/01/18 07:33:07;;;;;;;1.50;1.40;;;;;;;2.55;66.26;102478.63;6131809;23;20013;-76
2022/01/18 07:35:35;;;;;;;2.97;1.55;;;;;;;2.57;66.62;102482.88;6157178;23;20013;-77
2022/01/18 07:38:14;;;;;;;1.63;1.52;;;;;;;2.53;67.05;102478.81;6133636;23;20009;-75
2022/01/18 07:40:41;;;;;;;1.15;1.13;;;;;;;2.56;66.96;102477.66;6156962;23;20001;-77
2022/01/18 07:43:16;;;;;;;1.77;1.67;;;;;;;2.60;66.52;102477.16;6158815;23;20009;-77
2022/01/18 07:45:43;;;;;;;1.27;1.27;;;;;;;2.72;66.53;102479.56;6160383;23;20004;-77
2022/01/18 07:48:22;;;;;;;0.98;0.77;;;;;;;2.74;66.31;102474.81;6149212;23;20036;-76
2022/01/18 07:50:48;;;;;;;1.08;0.98;;;;;;;2.77;66.08;102482.59;6200610;23;20347;-76
2022/01/18 07:53:33;;;;;;;1.00;1.00;;;;;;;2.83;66.08;102487.34;6175014;23;20017;-77
2022/01/18 07:55:59;;;;;;;1.25;1.10;;;;;;;2.78;66.42;102478.91;6156912;23;20009;-75
2022/01/18 07:58:24;;;;;;;1.05;0.80;;;;;;;2.83;66.19;102491.91;6157371;23;20448;-75
2022/01/18 08:00:57;;;;;;;4.53;4.10;;;;;;;2.74;66.07;102504.53;6156312;23;20062;-77
2022/01/18 08:03:29;;;;;;;6.70;5.07;;;;;;;2.32;66.41;102465.69;6130307;23;20085;-75
2022/01/18 08:06:31;;;;;;;;;;;;;;;;;;;;;
2022/01/18 08:09:46;;;;;;;6.75;4.75;;;;;;;2.23;66.44;102508.03;6154899;23;20519;-77
2022/01/18 08:12:21;;;;;;;6.72;4.88;;;;;;;1.91;67.22;102482.53;6153475;23;20120;-76
2022/01/18 08:15:01;;;;;;;8.48;4.95;;;;;;;1.87;67.65;102489.22;6126172;23;20051;-76
2022/01/18 08:18:00;;;;;;;;;;;;;;;;;;;;;
2022/01/18 08:20:53;;;;;;;3.28;2.97;;;;;;;2.02;68.51;102504.84;6153142;23;20089;-77
2022/01/18 08:23:22;;;;;;;2.42;2.22;;;;;;;2.03;68.32;102490.31;6156167;23;20305;-77
2022/01/18 08:26:04;;;;;;;;;;;;;;;;;;;;;
2022/01/18 08:28:32;;;;;;;3.35;1.50;;;;;;;2.09;67.61;102466.25;6151744;23;20084;-77
2022/01/18 08:31:11;;;;;;;;;;;;;;;;;;;;;
2022/01/18 08:33:37;;;;;;;3.00;1.85;;;;;;;2.47;68.07;102498.38;6153166;23;20084;-77
2022/01/18 08:36:14;;;;;;;0.77;0.77;;;;;;;2.45;68.08;102470.66;6126688;23;20025;-78
2022/01/18 08:38:43;;;;;;;2.17;1.30;;;;;;;2.67;67.91;102484.59;6125821;23;20009;-76
2022/01/18 08:41:09;;;;;;;0.98;0.88;;;;;;;2.90;68.37;102504.59;6126508;23;20381;-77
2022/01/18 08:55:00;;;;;;;3.97;3.67;;;;;;;3.03;68.16;102508.72;6062825;23;20570;-74
2022/01/18 18:33:12;;;;;;;1.50;1.40;;;;;;;7.17;65.68;102222.19;6212716;23;20024;-76
2022/01/18 18:35:40;;;;;;;1.13;1.00;;;;;;;7.12;65.54;102236.34;6219366;23;20036;-76
2022/01/18 18:38:06;;;;;;;7.38;5.75;;;;;;;6.76;65.27;102203.84;6192441;23;19997;-76
2022/01/18 18:44:14;;;;;;;3.95;3.60;;;;;;;6.42;66.13;102221.75;6157674;23;20094;-77
2022/01/18 18:47:09;;;;;;;2.72;2.10;;;;;;;6.37;66.11;102235.09;6086267;23;20007;-75
2022/01/18 18:49:46;;;;;;;3.80;3.60;;;;;;;6.26;66.66;102231.88;6095003;23;20010;-77
2022/01/18 18:52:20;;;;;;;2.03;1.92;;;;;;;6.30;67.08;102237.75;6123446;23;20041;-76
2022/01/18 18:55:19;;;;;;;;;;;;;;;;;;;;;
2022/01/18 18:58:05;;;;;;;1.55;1.45;;;;;;;6.40;66.90;102221.97;6213046;23;20087;-73
2022/01/18 19:01:04;;;;;;;2.13;1.42;;;;;;;6.59;66.48;102247.66;6185306;23;20009;-74
2022/01/18 19:04:11;;;;;;;1.17;1.10;;;;;;;6.76;67.45;102264.53;6182440;23;20012;-76
2022/01/18 19:10:01;;;;;;;1.60;1.50;;;;;;;6.83;67.10;102231.94;6178278;23;20016;-74
2022/01/18 20:10:37;;;;;;;;;;;;;;;;;;;;;
2022/01/18 20:13:59;;;;;;;;;;;;;;;;;;;;;
2022/01/18 20:16:42;;;;;;;;;;;;;;;;;;;;;
2022/01/18 20:22:23;;;;;;;13.20;7.93;;;;;;;6.19;66.43;102118.72;6148540;23;19997;-72
2022/01/18 20:26:16;;;;;;;;;;;;;;;;;;;;;
2022/01/18 20:29:17;;;;;;;;;;;;;;;;;;;;;
2022/01/18 23:16:59;;;;;;;7.53;6.70;;;;;;;4.62;75.99;101984.44;6208883;23;20386;-72
2022/01/18 23:19:25;;;;;;;6.72;6.28;;;;;;;4.79;76.27;102006.75;6186278;23;20339;-78
2022/01/18 23:21:51;;;;;;;11.60;8.18;;;;;;;4.78;75.54;101988.81;6184788;23;20009;-78
2022/01/18 23:24:23;;;;;;;10.07;7.35;;;;;;;4.77;75.81;101981.72;6212229;23;20031;-74
2022/01/18 23:26:52;;;;;;;7.55;6.70;;;;;;;4.93;75.60;102008.59;6210752;23;20040;-73
2022/01/18 23:29:18;;;;;;;9.00;6.40;;;;;;;4.98;75.71;102000.75;6185025;23;20013;-75
2022/01/18 23:31:43;;;;;;;7.97;6.07;;;;;;;5.00;76.21;101982.41;6184617;23;20004;-75
2022/01/18 23:34:09;;;;;;;8.32;6.95;;;;;;;5.04;75.65;101967.44;6213479;23;20005;-78
2022/01/18 23:36:37;;;;;;;11.23;7.03;;;;;;;5.13;75.65;101980.88;6186153;23;20008;-76
2022/01/18 23:39:14;;;;;;;11.73;6.38;;;;;;;5.20;75.84;101984.50;6186418;23;20008;-76
2022/01/18 23:41:41;;;;;;;7.75;6.50;;;;;;;5.24;75.90;101988.50;6212898;23;20039;-77
2022/01/18 23:44:09;;;;;;;7.22;6.10;;;;;;;5.18;75.56;101978.44;6186463;23;20652;-77
2022/01/18 23:46:36;;;;;;;9.90;7.20;;;;;;;5.24;75.38;101977.66;6185697;23;20011;-76
2022/01/18 23:49:27;;;;;;;10.88;6.80;;;;;;;5.20;75.39;101968.25;6186984;23;20422;-77
2022/01/18 23:52:05;;;;;;;;;;;;;;;;;;;;;
2022/01/18 23:54:43;;;;;;;;;;;;;;;;;;;;;
2022/01/18 23:57:14;;;;;;;9.00;6.75;;;;;;;5.13;75.04;101946.47;6213745;23;20765;-77
2022/01/18 23:59:42;;;;;;;6.28;5.65;;;;;;;5.20;75.74;101955.50;6188255;23;20044;-79
